Time;durP1;ratioP1;P1;durP2;ratioP2;P2;SDS_P1;SDS_P2;PMS_P1;PMS_P2;Temp;Humidity;BMP_temperature;BMP_pressure;BME280_temperature;BME280_humidity;BME280_pressure;Samples;Min_cycle;Max_cycle;Signal;HPM_P1;HPM_P2
2023/08/13 00:00:29;;;;;;;1.75;1.65;;;;;;;;;;4951682;29;20284;-85
2023/08/13 00:03:00;;;;;;;1.70;1.42;;;;;;;;;;4951987;29;20261;-85
2023/08/13 00:05:30;;;;;;;1.50;1.50;;;;;;;;;;4952135;29;20249;-84
2023/08/13 00:08:00;;;;;;;1.50;1.50;;;;;;;;;;4952352;29;20190;-84
2023/08/13 00:10:31;;;;;;;1.70;1.52;;;;;;;;;;4951462;28;20449;-84
2023/08/13 00:12:59;;;;;;;1.50;1.50;;;;;;;;;;4950903;29;20660;-85
2023/08/13 00:15:28;;;;;;;1.65;1.55;;;;;;;;;;4951240;29;20297;-84
2023/08/13 00:17:58;;;;;;;1.02;1.02;;;;;;;;;;4951949;29;20678;-84
2023/08/13 00:20:29;;;;;;;1.55;1.55;;;;;;;;;;4950745;29;20206;-84
2023/08/13 00:22:58;;;;;;;1.80;1.70;;;;;;;;;;4951948;29;20217;-86
2023/08/13 00:25:27;;;;;;;1.30;1.30;;;;;;;;;;4951891;29;20210;-84
2023/08/13 00:27:57;;;;;;;2.25;1.77;;;;;;;;;;4951041;29;20210;-85
2023/08/13 00:30:26;;;;;;;1.65;1.55;;;;;;;;;;4951082;29;20282;-84
2023/08/13 00:32:54;;;;;;;1.70;1.60;;;;;;;;;;4950909;28;20205;-85
2023/08/13 00:35:24;;;;;;;2.08;1.50;;;;;;;;;;4950723;29;20198;-84
2023/08/13 00:37:53;;;;;;;1.90;1.80;;;;;;;;;;4951503;29;20206;-86
2023/08/13 00:40:21;;;;;;;1.55;1.45;;;;;;;;;;4951950;29;20198;-84
2023/08/13 00:42:50;;;;;;;2.15;1.33;;;;;;;;;;4951030;29;20237;-84
2023/08/13 00:45:20;;;;;;;1.58;1.58;;;;;;;;;;4951469;29;20263;-86
2023/08/13 00:47:51;;;;;;;1.50;1.40;;;;;;;;;;4951824;29;20204;-84
2023/08/13 00:50:21;;;;;;;1.63;1.52;;;;;;;;;;4950912;29;20553;-85
2023/08/13 00:52:52;;;;;;;1.55;1.45;;;;;;;;;;4952374;29;20456;-87
2023/08/13 00:55:20;;;;;;;1.73;1.63;;;;;;;;;;4952795;29;20286;-84
2023/08/13 00:57:49;;;;;;;1.67;1.60;;;;;;;;;;4951327;29;20215;-84
2023/08/13 01:00:18;;;;;;;1.50;1.50;;;;;;;;;;4952415;29;20213;-83
2023/08/13 01:02:48;;;;;;;1.65;1.55;;;;;;;;;;4952333;29;20671;-85
2023/08/13 01:05:16;;;;;;;2.05;1.50;;;;;;;;;;4950779;29;20205;-83
2023/08/13 01:07:52;;;;;;;1.42;1.42;;;;;;;;;;4952733;29;20210;-84
2023/08/13 01:10:26;;;;;;;1.30;1.30;;;;;;;;;;4960768;28;20393;-83
2023/08/13 01:12:58;;;;;;;1.83;1.73;;;;;;;;;;4968300;29;20204;-84
2023/08/13 01:15:29;;;;;;;1.92;1.83;;;;;;;;;;4956443;29;20216;-84
2023/08/13 01:18:01;;;;;;;1.85;1.75;;;;;;;;;;4951354;29;20714;-83
2023/08/13 01:20:32;;;;;;;1.85;1.75;;;;;;;;;;4951272;29;20298;-84
2023/08/13 01:23:03;;;;;;;1.55;1.48;;;;;;;;;;4951852;29;20230;-84
2023/08/13 01:25:31;;;;;;;1.73;1.50;;;;;;;;;;4950010;29;20211;-84
2023/08/13 01:28:05;;;;;;;2.50;1.58;;;;;;;;;;4951479;29;20204;-84
2023/08/13 01:30:39;;;;;;;1.63;1.52;;;;;;;;;;4951027;29;20249;-85
2023/08/13 01:33:09;;;;;;;1.85;1.75;;;;;;;;;;4950152;29;20645;-84
2023/08/13 01:35:39;;;;;;;1.40;1.30;;;;;;;;;;4950970;29;20198;-84
2023/08/13 01:38:10;;;;;;;1.80;1.70;;;;;;;;;;4951326;29;20589;-84
2023/08/13 01:40:39;;;;;;;2.00;1.83;;;;;;;;;;4949856;29;20194;-85
2023/08/13 01:43:09;;;;;;;1.70;1.65;;;;;;;;;;4950493;29;20615;-85
2023/08/13 01:45:38;;;;;;;1.95;1.85;;;;;;;;;;4958871;28;20638;-84
2023/08/13 01:48:07;;;;;;;2.25;2.15;;;;;;;;;;4954250;29;20233;-85
2023/08/13 01:50:36;;;;;;;1.73;1.70;;;;;;;;;;4953955;29;20250;-85
2023/08/13 01:53:05;;;;;;;1.73;1.63;;;;;;;;;;4953478;29;20665;-84
2023/08/13 01:55:35;;;;;;;2.03;1.92;;;;;;;;;;4953004;29;20216;-84
2023/08/13 01:58:05;;;;;;;2.03;1.90;;;;;;;;;;4954542;29;20631;-86
2023/08/13 02:00:32;;;;;;;2.20;1.98;;;;;;;;;;4954290;29;20201;-84
2023/08/13 02:03:01;;;;;;;1.95;1.92;;;;;;;;;;4954750;29;20229;-84
2023/08/13 02:05:31;;;;;;;2.08;1.98;;;;;;;;;;4955043;29;20203;-85
2023/08/13 02:08:02;;;;;;;1.83;1.80;;;;;;;;;;4954169;29;20215;-84
2023/08/13 02:10:30;;;;;;;2.00;1.90;;;;;;;;;;4953661;28;20328;-83
2023/08/13 02:13:00;;;;;;;2.17;1.70;;;;;;;;;;4953767;29;20579;-83
2023/08/13 02:15:29;;;;;;;2.30;1.83;;;;;;;;;;4954066;28;20569;-83
2023/08/13 02:17:57;;;;;;;1.40;1.40;;;;;;;;;;4954034;29;20636;-83
2023/08/13 02:20:26;;;;;;;2.05;1.88;;;;;;;;;;4955004;29;20750;-84
2023/08/13 02:22:55;;;;;;;1.58;1.55;;;;;;;;;;4954528;29;20254;-84
2023/08/13 02:25:25;;;;;;;2.30;2.10;;;;;;;;;;4953496;29;20255;-84
2023/08/13 02:27:56;;;;;;;2.05;1.80;;;;;;;;;;4954352;29;20627;-84
2023/08/13 02:30:26;;;;;;;2.20;1.98;;;;;;;;;;4953908;29;20196;-84
2023/08/13 02:32:55;;;;;;;2.20;2.10;;;;;;;;;;4953668;29;20187;-84
2023/08/13 02:35:24;;;;;;;2.10;2.00;;;;;;;;;;4953458;29;20287;-84
2023/08/13 02:37:53;;;;;;;2.08;1.95;;;;;;;;;;4953647;29;20219;-85
2023/08/13 02:40:22;;;;;;;2.33;2.10;;;;;;;;;;4952231;29;20589;-84
2023/08/13 02:42:51;;;;;;;2.22;2.03;;;;;;;;;;4952892;29;20327;-84
2023/08/13 02:45:20;;;;;;;4.50;2.00;;;;;;;;;;4953278;29;20223;-85
2023/08/13 02:47:51;;;;;;;1.83;1.73;;;;;;;;;;4953074;29;20221;-84
2023/08/13 02:50:19;;;;;;;2.17;2.08;;;;;;;;;;4953618;29;20265;-84
2023/08/13 02:52:49;;;;;;;2.85;2.75;;;;;;;;;;4953521;29;20209;-85
2023/08/13 02:55:17;;;;;;;5.20;4.70;;;;;;;;;;4951848;28;20204;-84
2023/08/13 02:57:46;;;;;;;3.00;2.80;;;;;;;;;;4952937;29;20206;-84
2023/08/13 03:00:15;;;;;;;2.60;2.40;;;;;;;;;;4953933;29;20215;-84
2023/08/13 03:02:44;;;;;;;2.10;2.00;;;;;;;;;;4952821;29;20242;-84
2023/08/13 03:05:13;;;;;;;4.47;2.27;;;;;;;;;;4952687;29;20203;-84
2023/08/13 03:07:42;;;;;;;2.33;2.17;;;;;;;;;;4954079;29;20200;-85
2023/08/13 03:10:10;;;;;;;2.40;2.30;;;;;;;;;;4952881;28;20242;-86
2023/08/13 03:12:41;;;;;;;3.27;2.00;;;;;;;;;;4953472;29;20237;-83
2023/08/13 03:15:10;;;;;;;2.07;1.93;;;;;;;;;;4954107;29;20253;-85
2023/08/13 03:17:40;;;;;;;1.83;1.67;;;;;;;;;;4952785;29;20211;-84
2023/08/13 03:20:09;;;;;;;2.23;2.13;;;;;;;;;;4953936;29;20209;-84
2023/08/13 03:22:41;;;;;;;2.23;2.13;;;;;;;;;;4953323;29;20231;-84
2023/08/13 03:25:10;;;;;;;2.33;2.13;;;;;;;;;;4952617;29;20669;-85
2023/08/13 03:27:39;;;;;;;2.20;2.10;;;;;;;;;;4953539;29;20217;-84
2023/08/13 03:30:08;;;;;;;2.27;2.17;;;;;;;;;;4952997;29;20433;-85
2023/08/13 03:32:36;;;;;;;4.90;2.10;;;;;;;;;;4951262;29;20283;-84
2023/08/13 03:35:06;;;;;;;2.70;2.10;;;;;;;;;;4951928;29;20219;-85
2023/08/13 03:37:34;;;;;;;2.07;1.97;;;;;;;;;;4952531;29;20674;-86
2023/08/13 03:40:05;;;;;;;2.27;2.10;;;;;;;;;;4952118;29;20211;-84
2023/08/13 03:42:35;;;;;;;2.50;2.30;;;;;;;;;;4952471;29;20199;-86
2023/08/13 03:45:03;;;;;;;2.03;1.93;;;;;;;;;;4953254;29;20227;-85
2023/08/13 03:47:31;;;;;;;2.30;2.20;;;;;;;;;;4951627;29;20217;-86
2023/08/13 03:50:01;;;;;;;2.60;2.08;;;;;;;;;;4953251;29;20213;-84
2023/08/13 03:52:30;;;;;;;2.25;2.05;;;;;;;;;;4952218;29;20202;-86
2023/08/13 03:55:00;;;;;;;2.28;1.98;;;;;;;;;;4952758;29;20555;-85
2023/08/13 03:57:30;;;;;;;2.10;2.00;;;;;;;;;;4951685;29;20896;-84
2023/08/13 03:59:58;;;;;;;1.73;1.73;;;;;;;;;;4952803;29;20198;-84
2023/08/13 04:02:27;;;;;;;1.67;1.63;;;;;;;;;;4951807;29;20643;-84
2023/08/13 04:04:55;;;;;;;2.28;2.17;;;;;;;;;;4955053;29;20202;-84
2023/08/13 04:07:24;;;;;;;3.47;2.28;;;;;;;;;;4957819;28;20203;-84
2023/08/13 04:09:53;;;;;;;2.40;2.22;;;;;;;;;;4952409;28;20238;-84
2023/08/13 04:12:24;;;;;;;2.03;1.92;;;;;;;;;;4951359;29;20209;-84
2023/08/13 04:14:56;;;;;;;2.40;2.22;;;;;;;;;;4951761;29;20518;-84
2023/08/13 04:20:11;;;;;;;2.08;1.98;;;;;;;;;;4951277;29;20321;-86
2023/08/13 04:22:42;;;;;;;1.90;1.80;;;;;;;;;;4952321;29;20258;-85
2023/08/13 04:25:10;;;;;;;2.60;2.03;;;;;;;;;;4951219;29;20210;-86
2023/08/13 04:27:40;;;;;;;1.88;1.77;;;;;;;;;;4952179;29;20338;-85
2023/08/13 04:30:10;;;;;;;3.17;2.15;;;;;;;;;;4953042;29;20728;-86
2023/08/13 04:32:39;;;;;;;15.30;10.50;;;;;;;;;;4950954;29;20637;-86
2023/08/13 04:35:09;;;;;;;4.13;3.78;;;;;;;;;;4951690;29;20202;-86
2023/08/13 04:37:38;;;;;;;1.70;1.70;;;;;;;;;;4952457;29;20215;-86
2023/08/13 04:40:07;;;;;;;2.08;1.98;;;;;;;;;;4951268;29;20297;-86
2023/08/13 04:42:37;;;;;;;1.90;1.80;;;;;;;;;;4952308;29;20660;-86
2023/08/13 04:45:08;;;;;;;1.67;1.42;;;;;;;;;;4951822;29;20341;-86
2023/08/13 04:47:38;;;;;;;2.25;2.15;;;;;;;;;;4953121;29;20198;-86
2023/08/13 04:50:07;;;;;;;1.98;1.90;;;;;;;;;;4957386;29;20206;-85
2023/08/13 04:52:37;;;;;;;1.95;1.95;;;;;;;;;;4962486;29;20262;-86
2023/08/13 04:55:09;;;;;;;2.00;1.90;;;;;;;;;;4957153;29;20210;-85
2023/08/13 04:57:41;;;;;;;1.85;1.85;;;;;;;;;;4952567;29;20202;-84
2023/08/13 05:00:10;;;;;;;2.28;2.08;;;;;;;;;;4950585;29;20293;-86
2023/08/13 05:02:39;;;;;;;2.45;2.35;;;;;;;;;;4951327;29;20230;-84
2023/08/13 05:05:08;;;;;;;2.80;2.17;;;;;;;;;;4952585;29;20282;-85
2023/08/13 05:07:38;;;;;;;2.08;1.98;;;;;;;;;;4949770;29;20207;-85
2023/08/13 05:10:11;;;;;;;2.10;2.00;;;;;;;;;;4950428;29;20240;-87
2023/08/13 05:12:39;;;;;;;2.38;2.00;;;;;;;;;;4951448;29;20255;-85
2023/08/13 05:15:09;;;;;;;1.65;1.65;;;;;;;;;;4953917;29;20707;-86
2023/08/13 05:17:38;;;;;;;2.45;2.35;;;;;;;;;;4969365;29;20303;-85
2023/08/13 05:20:22;;;;;;;2.10;2.00;;;;;;;;;;4954994;28;20273;-84
2023/08/13 05:22:52;;;;;;;2.20;2.05;;;;;;;;;;4952349;29;20190;-88
2023/08/13 05:25:23;;;;;;;2.22;2.13;;;;;;;;;;4953458;29;20265;-86
2023/08/13 05:27:53;;;;;;;2.38;2.28;;;;;;;;;;4952350;29;20226;-86
2023/08/13 05:30:21;;;;;;;2.33;2.22;;;;;;;;;;4950326;29;20261;-86
2023/08/13 05:32:51;;;;;;;2.40;2.30;;;;;;;;;;4951613;29;20214;-86
2023/08/13 05:35:21;;;;;;;4.85;2.17;;;;;;;;;;4951086;29;20237;-84
2023/08/13 05:37:51;;;;;;;2.30;2.20;;;;;;;;;;4950709;29;20230;-85
2023/08/13 05:40:21;;;;;;;2.42;2.33;;;;;;;;;;4951089;29;20273;-86
2023/08/13 05:42:50;;;;;;;2.03;2.03;;;;;;;;;;4950835;29;20203;-85
2023/08/13 05:45:19;;;;;;;2.15;2.05;;;;;;;;;;4949796;29;20825;-86
2023/08/13 05:47:49;;;;;;;2.33;2.22;;;;;;;;;;4951455;29;20668;-84
2023/08/13 05:50:21;;;;;;;2.20;2.10;;;;;;;;;;4950580;29;20633;-86
2023/08/13 05:52:52;;;;;;;2.55;2.45;;;;;;;;;;4949465;29;20691;-85
2023/08/13 05:55:21;;;;;;;2.58;2.47;;;;;;;;;;4950710;29;20208;-85
2023/08/13 05:57:50;;;;;;;3.00;2.78;;;;;;;;;;4951008;29;20206;-85
2023/08/13 06:00:19;;;;;;;2.75;2.50;;;;;;;;;;4950639;29;20472;-86
2023/08/13 06:02:50;;;;;;;2.33;2.22;;;;;;;;;;4951632;29;20198;-85
2023/08/13 06:05:20;;;;;;;2.70;2.55;;;;;;;;;;4965233;29;20789;-85
2023/08/13 06:07:50;;;;;;;2.53;2.25;;;;;;;;;;4964895;29;20195;-85
2023/08/13 06:10:20;;;;;;;2.45;2.35;;;;;;;;;;4958898;28;20249;-85
2023/08/13 06:12:48;;;;;;;2.75;2.40;;;;;;;;;;4967671;29;20202;-83
2023/08/13 06:15:20;;;;;;;2.47;2.38;;;;;;;;;;4965750;29;20585;-84
2023/08/13 06:17:49;;;;;;;2.25;2.15;;;;;;;;;;4960064;29;20199;-85
2023/08/13 06:20:19;;;;;;;2.20;2.10;;;;;;;;;;4952425;29;20198;-85
2023/08/13 06:22:50;;;;;;;2.70;2.50;;;;;;;;;;4950922;29;20224;-86
2023/08/13 06:25:22;;;;;;;3.17;2.35;;;;;;;;;;4952676;29;20241;-85
2023/08/13 06:27:51;;;;;;;2.63;2.50;;;;;;;;;;4951545;29;20398;-85
2023/08/13 06:30:19;;;;;;;2.58;2.47;;;;;;;;;;4950603;28;20214;-86
2023/08/13 06:32:48;;;;;;;2.28;2.17;;;;;;;;;;4954808;29;20237;-85
2023/08/13 06:35:17;;;;;;;2.42;2.33;;;;;;;;;;4954444;29;20233;-85
2023/08/13 06:37:47;;;;;;;2.42;2.33;;;;;;;;;;4953276;29;20285;-85
2023/08/13 06:40:17;;;;;;;2.60;2.50;;;;;;;;;;4953965;29;20599;-85
2023/08/13 06:42:49;;;;;;;4.60;2.15;;;;;;;;;;4954850;29;20207;-85
2023/08/13 06:45:19;;;;;;;2.45;2.30;;;;;;;;;;4953763;29;20222;-85
2023/08/13 06:47:48;;;;;;;2.30;2.20;;;;;;;;;;4954492;29;20216;-84
2023/08/13 06:50:17;;;;;;;2.70;2.60;;;;;;;;;;4954831;29;20220;-85
2023/08/13 06:52:45;;;;;;;3.20;2.80;;;;;;;;;;4953148;29;20202;-86
2023/08/13 06:55:13;;;;;;;2.60;2.40;;;;;;;;;;4954638;29;20293;-86
2023/08/13 06:57:43;;;;;;;7.72;2.42;;;;;;;;;;4954154;29;20364;-86
2023/08/13 07:00:15;;;;;;;2.25;2.15;;;;;;;;;;4953629;29;20596;-85
2023/08/13 07:02:44;;;;;;;6.47;2.33;;;;;;;;;;4955266;29;20198;-85
2023/08/13 07:05:15;;;;;;;2.45;2.35;;;;;;;;;;4953967;29;20699;-85
2023/08/13 07:07:45;;;;;;;2.47;2.28;;;;;;;;;;4953075;29;20285;-86
2023/08/13 07:10:14;;;;;;;3.00;2.80;;;;;;;;;;4953975;28;20763;-84
2023/08/13 07:12:45;;;;;;;2.85;2.70;;;;;;;;;;4954928;29;20202;-84
2023/08/13 07:15:17;;;;;;;2.50;2.40;;;;;;;;;;4955102;29;20210;-84
2023/08/13 07:17:47;;;;;;;2.35;2.25;;;;;;;;;;4954067;29;20202;-87
2023/08/13 07:20:15;;;;;;;4.03;2.25;;;;;;;;;;4953559;29;20285;-85
2023/08/13 07:22:47;;;;;;;2.47;2.38;;;;;;;;;;4953163;29;20571;-84
2023/08/13 07:25:15;;;;;;;2.70;2.60;;;;;;;;;;4955185;29;20281;-85
2023/08/13 07:27:44;;;;;;;2.65;2.55;;;;;;;;;;4954384;29;20206;-85
2023/08/13 07:30:16;;;;;;;3.42;2.80;;;;;;;;;;4953349;29;20665;-85
2023/08/13 07:32:44;;;;;;;2.95;2.40;;;;;;;;;;4954068;29;20543;-85
2023/08/13 07:35:15;;;;;;;2.70;2.60;;;;;;;;;;4952884;29;20699;-85
2023/08/13 07:37:46;;;;;;;2.70;2.60;;;;;;;;;;4953365;29;20202;-84
2023/08/13 07:40:18;;;;;;;3.00;2.55;;;;;;;;;;4952964;29;20217;-85
2023/08/13 07:42:46;;;;;;;2.20;2.10;;;;;;;;;;4953267;28;20194;-86
2023/08/13 07:45:22;;;;;;;2.15;2.05;;;;;;;;;;4952885;29;20719;-85
2023/08/13 07:47:53;;;;;;;2.20;2.10;;;;;;;;;;4952887;29;20198;-84
2023/08/13 07:50:23;;;;;;;1.90;1.80;;;;;;;;;;4952606;29;20202;-85
2023/08/13 07:52:55;;;;;;;2.15;2.05;;;;;;;;;;4953189;29;20587;-86
2023/08/13 07:55:27;;;;;;;3.65;2.45;;;;;;;;;;4952983;29;20294;-85
2023/08/13 07:57:54;;;;;;;3.33;2.42;;;;;;;;;;4952439;29;20187;-86
2023/08/13 08:00:24;;;;;;;2.65;2.20;;;;;;;;;;4953098;29;20199;-85
2023/08/13 08:02:53;;;;;;;2.45;1.90;;;;;;;;;;4952898;29;20198;-85
2023/08/13 08:05:24;;;;;;;2.38;2.28;;;;;;;;;;4952975;29;20936;-84
2023/08/13 08:07:54;;;;;;;1.58;1.58;;;;;;;;;;4953078;29;20226;-86
2023/08/13 08:10:24;;;;;;;1.80;1.70;;;;;;;;;;4952303;28;20246;-85
2023/08/13 08:12:55;;;;;;;1.90;1.80;;;;;;;;;;4953072;29;20195;-85
2023/08/13 08:15:40;;;;;;;2.47;1.95;;;;;;;;;;4952852;29;20199;-85
2023/08/13 08:18:13;;;;;;;1.95;1.85;;;;;;;;;;4950499;29;20629;-84
2023/08/13 08:20:46;;;;;;;3.05;2.20;;;;;;;;;;4952293;29;20238;-84
2023/08/13 08:23:18;;;;;;;1.80;1.70;;;;;;;;;;4952601;29;20203;-84
2023/08/13 08:25:51;;;;;;;1.90;1.80;;;;;;;;;;4952412;29;20230;-85
2023/08/13 08:28:22;;;;;;;2.03;1.92;;;;;;;;;;4950966;29;20207;-85
2023/08/13 08:30:54;;;;;;;2.40;2.00;;;;;;;;;;4952759;29;20203;-85
2023/08/13 08:33:24;;;;;;;1.58;1.58;;;;;;;;;;4952735;29;20214;-88
2023/08/13 08:35:56;;;;;;;1.85;1.75;;;;;;;;;;4960247;29;20206;-85
2023/08/13 08:38:26;;;;;;;1.80;1.70;;;;;;;;;;4970942;29;20255;-84
2023/08/13 08:40:55;;;;;;;5.38;1.60;;;;;;;;;;4960837;29;20265;-84
2023/08/13 08:43:24;;;;;;;1.58;1.58;;;;;;;;;;4951807;29;20207;-85
2023/08/13 08:45:54;;;;;;;1.52;1.52;;;;;;;;;;4951157;29;20226;-85
2023/08/13 08:48:26;;;;;;;1.58;1.58;;;;;;;;;;4952426;29;20214;-85
2023/08/13 08:50:54;;;;;;;2.05;1.95;;;;;;;;;;4951494;29;20273;-85
2023/08/13 08:53:25;;;;;;;1.65;1.55;;;;;;;;;;4951772;28;20683;-85
2023/08/13 08:55:55;;;;;;;1.63;1.58;;;;;;;;;;4952073;29;20346;-84
2023/08/13 08:58:25;;;;;;;1.80;1.70;;;;;;;;;;4951150;29;20744;-86
2023/08/13 09:01:00;;;;;;;2.13;2.03;;;;;;;;;;4952530;29;20203;-87
2023/08/13 09:03:30;;;;;;;1.60;1.60;;;;;;;;;;4952502;29;20546;-86
2023/08/13 09:05:59;;;;;;;4.45;2.53;;;;;;;;;;4950695;29;20313;-84
2023/08/13 09:08:29;;;;;;;1.67;1.58;;;;;;;;;;4952034;29;20285;-85
2023/08/13 09:10:57;;;;;;;1.90;1.80;;;;;;;;;;4952145;28;20243;-86
2023/08/13 09:13:32;;;;;;;1.92;1.73;;;;;;;;;;4950459;29;20523;-84
2023/08/13 09:16:01;;;;;;;2.60;1.90;;;;;;;;;;4951617;29;20348;-87
2023/08/13 09:18:39;;;;;;;1.80;1.70;;;;;;;;;;4951327;29;20202;-85
2023/08/13 09:21:08;;;;;;;1.92;1.83;;;;;;;;;;4951237;29;20620;-86
2023/08/13 09:23:41;;;;;;;1.48;1.48;;;;;;;;;;4952315;29;20359;-84
2023/08/13 09:26:10;;;;;;;3.28;1.90;;;;;;;;;;4951912;29;20758;-84
2023/08/13 09:28:43;;;;;;;1.63;1.60;;;;;;;;;;4950582;29;20209;-85
2023/08/13 09:31:12;;;;;;;3.15;1.63;;;;;;;;;;4952203;29;20206;-86
2023/08/13 09:33:43;;;;;;;2.00;1.90;;;;;;;;;;4951854;29;20207;-85
2023/08/13 09:36:15;;;;;;;1.48;1.45;;;;;;;;;;4951196;29;20203;-85
2023/08/13 09:38:46;;;;;;;1.80;1.70;;;;;;;;;;4951807;29;20215;-85
2023/08/13 09:41:14;;;;;;;2.10;2.00;;;;;;;;;;4950978;29;20257;-85
2023/08/13 09:43:44;;;;;;;1.70;1.70;;;;;;;;;;4951750;29;20195;-86
2023/08/13 09:46:13;;;;;;;1.80;1.77;;;;;;;;;;4951869;29;20223;-84
2023/08/13 09:48:45;;;;;;;1.58;1.58;;;;;;;;;;4950745;29;20226;-84
2023/08/13 09:51:14;;;;;;;1.88;1.77;;;;;;;;;;4952276;29;20203;-86
2023/08/13 09:53:43;;;;;;;2.25;1.80;;;;;;;;;;4951494;29;20289;-86
2023/08/13 09:56:15;;;;;;;1.20;1.20;;;;;;;;;;4951124;29;20207;-84
2023/08/13 09:58:47;;;;;;;1.40;1.40;;;;;;;;;;4952358;29;20664;-85
2023/08/13 10:01:19;;;;;;;2.03;1.88;;;;;;;;;;4951957;29;20195;-87
2023/08/13 10:03:52;;;;;;;1.85;1.83;;;;;;;;;;4952087;29;20199;-84
2023/08/13 10:06:22;;;;;;;1.73;1.63;;;;;;;;;;4953618;28;20723;-84
2023/08/13 10:08:52;;;;;;;1.80;1.80;;;;;;;;;;4954978;29;20762;-85
2023/08/13 10:11:22;;;;;;;3.53;2.35;;;;;;;;;;4954848;28;20243;-85
2023/08/13 10:13:51;;;;;;;1.90;1.80;;;;;;;;;;4955315;29;20285;-85
2023/08/13 10:16:22;;;;;;;2.05;1.95;;;;;;;;;;4954781;29;20664;-84
2023/08/13 10:18:51;;;;;;;1.88;1.77;;;;;;;;;;4954446;29;20203;-86
2023/08/13 10:21:36;;;;;;;1.88;1.85;;;;;;;;;;4954920;29;20302;-84
2023/08/13 10:24:11;;;;;;;2.15;2.05;;;;;;;;;;4955499;29;20219;-85
2023/08/13 10:26:41;;;;;;;1.88;1.77;;;;;;;;;;4954385;29;20218;-85
2023/08/13 10:29:14;;;;;;;1.80;1.73;;;;;;;;;;4954782;29;20297;-85
2023/08/13 10:31:48;;;;;;;1.60;1.60;;;;;;;;;;4954898;29;20195;-85
2023/08/13 10:34:20;;;;;;;2.53;1.65;;;;;;;;;;4954474;29;20576;-85
2023/08/13 10:36:51;;;;;;;1.77;1.77;;;;;;;;;;4955007;29;20539;-86
2023/08/13 10:39:30;;;;;;;2.00;1.90;;;;;;;;;;4954656;29;20278;-85
2023/08/13 10:41:58;;;;;;;2.20;2.10;;;;;;;;;;4953607;29;20198;-85
2023/08/13 10:44:31;;;;;;;2.65;1.67;;;;;;;;;;4955211;29;20262;-85
2023/08/13 10:47:00;;;;;;;2.08;1.98;;;;;;;;;;4955405;29;20681;-86
2023/08/13 10:49:31;;;;;;;1.88;1.77;;;;;;;;;;4964110;29;20213;-86
2023/08/13 10:52:01;;;;;;;1.52;1.52;;;;;;;;;;4969052;29;20265;-84
2023/08/13 10:54:34;;;;;;;1.85;1.75;;;;;;;;;;4955127;29;20203;-86
2023/08/13 10:57:02;;;;;;;1.92;1.83;;;;;;;;;;4954868;29;20250;-84
2023/08/13 10:59:33;;;;;;;1.83;1.73;;;;;;;;;;4955268;29;20207;-84
2023/08/13 11:02:09;;;;;;;1.88;1.88;;;;;;;;;;4953260;29;20759;-84
2023/08/13 11:04:40;;;;;;;2.08;1.98;;;;;;;;;;4953056;29;20269;-84
2023/08/13 11:07:09;;;;;;;2.03;1.90;;;;;;;;;;4953718;29;20205;-84
2023/08/13 11:09:37;;;;;;;1.98;1.88;;;;;;;;;;4953414;28;20246;-85
2023/08/13 11:12:16;;;;;;;1.90;1.80;;;;;;;;;;4952133;29;20247;-84
2023/08/13 11:14:45;;;;;;;2.15;2.05;;;;;;;;;;4953850;29;20211;-89
2023/08/13 11:17:16;;;;;;;3.03;2.17;;;;;;;;;;4953067;28;20214;-85
2023/08/13 11:19:47;;;;;;;1.80;1.70;;;;;;;;;;4953349;29;20660;-85
2023/08/13 11:22:18;;;;;;;2.10;2.00;;;;;;;;;;4953803;29;20195;-86
2023/08/13 11:24:47;;;;;;;2.50;2.30;;;;;;;;;;4952996;29;20199;-86
2023/08/13 11:27:18;;;;;;;3.03;2.15;;;;;;;;;;4953726;29;20653;-85
2023/08/13 11:29:53;;;;;;;2.67;2.13;;;;;;;;;;4953144;29;20207;-86
2023/08/13 11:32:25;;;;;;;2.45;2.35;;;;;;;;;;4952175;29;20435;-85
2023/08/13 11:34:56;;;;;;;2.47;2.33;;;;;;;;;;4953955;29;20191;-86
2023/08/13 11:37:23;;;;;;;3.95;2.20;;;;;;;;;;4952849;29;20259;-85
2023/08/13 11:39:52;;;;;;;2.30;2.10;;;;;;;;;;4952020;29;20214;-85
2023/08/13 11:42:22;;;;;;;3.03;2.05;;;;;;;;;;4953095;29;20207;-85
2023/08/13 11:44:51;;;;;;;1.88;1.83;;;;;;;;;;4953608;29;20207;-85
2023/08/13 11:47:29;;;;;;;2.08;1.98;;;;;;;;;;4952124;29;20233;-85
2023/08/13 11:50:02;;;;;;;2.10;2.00;;;;;;;;;;4953060;29;20197;-87
2023/08/13 11:52:32;;;;;;;2.53;2.42;;;;;;;;;;4952910;29;20369;-85
2023/08/13 11:55:01;;;;;;;4.22;2.28;;;;;;;;;;4951954;29;20210;-84
2023/08/13 11:57:30;;;;;;;2.38;2.28;;;;;;;;;;4952913;29;20211;-86
2023/08/13 11:59:59;;;;;;;2.20;2.10;;;;;;;;;;4953012;29;20257;-85
2023/08/13 12:02:29;;;;;;;2.83;2.67;;;;;;;;;;4952900;29;20669;-85
2023/08/13 12:05:00;;;;;;;2.20;2.10;;;;;;;;;;4953062;29;20206;-85
2023/08/13 12:07:45;;;;;;;2.42;2.33;;;;;;;;;;4952883;29;20227;-85
2023/08/13 12:10:16;;;;;;;2.00;1.95;;;;;;;;;;4951941;28;20657;-84
2023/08/13 12:12:46;;;;;;;2.45;2.35;;;;;;;;;;4952168;29;20644;-85
2023/08/13 12:15:15;;;;;;;2.20;2.10;;;;;;;;;;4952004;29;20287;-85
2023/08/13 12:17:44;;;;;;;2.20;1.92;;;;;;;;;;4951905;29;20230;-85
2023/08/13 12:20:15;;;;;;;1.70;1.65;;;;;;;;;;4966782;29;20201;-82
2023/08/13 12:22:43;;;;;;;2.20;2.10;;;;;;;;;;4970768;29;20285;-85
2023/08/13 12:25:12;;;;;;;2.05;1.95;;;;;;;;;;4971164;29;20221;-85
2023/08/13 12:27:43;;;;;;;2.42;2.33;;;;;;;;;;4975398;29;20303;-86
2023/08/13 12:30:12;;;;;;;2.15;1.98;;;;;;;;;;4975358;28;21030;-86
2023/08/13 12:32:42;;;;;;;1.42;1.42;;;;;;;;;;4972324;28;20203;-85
2023/08/13 12:35:12;;;;;;;2.10;1.90;;;;;;;;;;4965446;29;20696;-85
2023/08/13 12:37:44;;;;;;;2.10;2.00;;;;;;;;;;4966796;29;20376;-85
2023/08/13 12:40:15;;;;;;;2.17;2.08;;;;;;;;;;4957015;29;20264;-85
2023/08/13 12:42:45;;;;;;;2.00;1.90;;;;;;;;;;4953711;29;20211;-85
2023/08/13 12:45:15;;;;;;;2.22;2.03;;;;;;;;;;4953267;29;20213;-85
2023/08/13 12:47:45;;;;;;;1.85;1.75;;;;;;;;;;4952347;29;20226;-85
2023/08/13 12:50:14;;;;;;;1.83;1.75;;;;;;;;;;4952878;29;20261;-85
2023/08/13 12:52:44;;;;;;;2.30;2.20;;;;;;;;;;4952687;29;20203;-86
2023/08/13 12:55:14;;;;;;;2.50;2.40;;;;;;;;;;4952135;29;20187;-85
2023/08/13 12:57:46;;;;;;;3.85;1.90;;;;;;;;;;4952655;29;20203;-84
2023/08/13 13:00:15;;;;;;;1.80;1.70;;;;;;;;;;4951931;29;20203;-84
2023/08/13 13:02:43;;;;;;;2.28;2.17;;;;;;;;;;4951416;29;20245;-85
2023/08/13 13:05:13;;;;;;;1.90;1.80;;;;;;;;;;4951979;29;20210;-84
2023/08/13 13:07:45;;;;;;;2.00;1.90;;;;;;;;;;4952106;29;20803;-85
2023/08/13 13:10:15;;;;;;;1.40;1.40;;;;;;;;;;4951119;28;20261;-84
2023/08/13 13:12:46;;;;;;;1.90;1.80;;;;;;;;;;4952898;29;20222;-83
2023/08/13 13:15:16;;;;;;;2.53;2.33;;;;;;;;;;4951880;29;20438;-85
2023/08/13 13:17:47;;;;;;;2.05;1.95;;;;;;;;;;4950554;29;20194;-84
2023/08/13 13:20:18;;;;;;;2.22;2.13;;;;;;;;;;4952252;29;20478;-85
2023/08/13 13:22:47;;;;;;;2.00;1.90;;;;;;;;;;4952303;29;20207;-84
2023/08/13 13:25:19;;;;;;;1.88;1.88;;;;;;;;;;4951274;29;20672;-85
2023/08/13 13:27:50;;;;;;;2.13;2.03;;;;;;;;;;4952608;29;20269;-84
2023/08/13 13:30:19;;;;;;;2.17;2.00;;;;;;;;;;4952655;29;20237;-84
2023/08/13 13:32:48;;;;;;;1.90;1.80;;;;;;;;;;4950471;29;20217;-85
2023/08/13 13:35:17;;;;;;;2.15;2.05;;;;;;;;;;4951928;29;20604;-85
2023/08/13 13:37:49;;;;;;;1.73;1.73;;;;;;;;;;4953664;29;20202;-85
2023/08/13 13:40:22;;;;;;;1.92;1.85;;;;;;;;;;4952198;28;20662;-85
2023/08/13 13:42:51;;;;;;;4.43;1.58;;;;;;;;;;4956235;29;20285;-85
2023/08/13 13:45:20;;;;;;;1.52;1.52;;;;;;;;;;4956359;29;20263;-87
2023/08/13 13:47:49;;;;;;;2.22;1.98;;;;;;;;;;4955516;29;20258;-85
2023/08/13 13:50:47;;;;;;;2.38;2.28;;;;;;;;;;4956086;29;20217;-85
2023/08/13 13:53:17;;;;;;;2.08;1.98;;;;;;;;;;4951108;29;21033;-85
2023/08/13 13:55:50;;;;;;;1.42;1.42;;;;;;;;;;4955588;29;20198;-84
2023/08/13 13:58:20;;;;;;;1.88;1.77;;;;;;;;;;4955452;29;20210;-85
2023/08/13 14:00:49;;;;;;;1.80;1.70;;;;;;;;;;4954523;29;20737;-85
2023/08/13 14:03:18;;;;;;;1.50;1.50;;;;;;;;;;4955456;29;20241;-85
2023/08/13 14:05:49;;;;;;;2.10;2.00;;;;;;;;;;4954408;29;20210;-86
2023/08/13 14:08:20;;;;;;;1.58;1.58;;;;;;;;;;4953793;29;20704;-85
2023/08/13 14:10:49;;;;;;;1.95;1.85;;;;;;;;;;4953844;28;20247;-85
2023/08/13 14:13:21;;;;;;;2.17;2.08;;;;;;;;;;4954534;29;20210;-83
2023/08/13 14:15:50;;;;;;;1.80;1.80;;;;;;;;;;4953117;28;20216;-84
2023/08/13 14:18:19;;;;;;;2.03;1.90;;;;;;;;;;4955040;29;20203;-85
2023/08/13 14:20:51;;;;;;;1.88;1.77;;;;;;;;;;4955373;29;20588;-84
2023/08/13 14:23:20;;;;;;;2.20;2.10;;;;;;;;;;4955180;29;20219;-84
2023/08/13 14:25:50;;;;;;;1.92;1.80;;;;;;;;;;4955411;29;20269;-84
2023/08/13 14:28:19;;;;;;;1.90;1.80;;;;;;;;;;4955528;29;20199;-83
2023/08/13 14:30:46;;;;;;;2.10;2.00;;;;;;;;;;4954807;29;20214;-84
2023/08/13 14:33:15;;;;;;;2.00;2.00;;;;;;;;;;4955003;29;20258;-85
2023/08/13 14:35:43;;;;;;;1.83;1.73;;;;;;;;;;4955329;29;20696;-84
2023/08/13 14:38:16;;;;;;;2.20;2.10;;;;;;;;;;4954533;29;20203;-84
2023/08/13 14:40:48;;;;;;;1.98;1.88;;;;;;;;;;4955431;29;20199;-85
2023/08/13 14:43:17;;;;;;;1.80;1.70;;;;;;;;;;4954158;29;20203;-85
2023/08/13 14:45:47;;;;;;;2.40;2.20;;;;;;;;;;4954164;29;20350;-84
2023/08/13 14:48:18;;;;;;;1.65;1.63;;;;;;;;;;4954026;29;20298;-84
2023/08/13 14:50:50;;;;;;;2.30;2.08;;;;;;;;;;4954535;29;20214;-85
2023/08/13 14:53:20;;;;;;;2.40;2.20;;;;;;;;;;4953350;28;20199;-85
2023/08/13 14:55:52;;;;;;;2.22;1.95;;;;;;;;;;4954947;29;20537;-85
2023/08/13 14:58:20;;;;;;;2.08;1.98;;;;;;;;;;4954462;29;20258;-85
2023/08/13 15:00:51;;;;;;;1.92;1.88;;;;;;;;;;4954210;29;20217;-84
2023/08/13 15:03:18;;;;;;;2.10;2.00;;;;;;;;;;4954381;29;20203;-85